CXA6837 ZUCK-ZSWZ
Flight info
| Callsign | CXA6837 |
|---|---|
| Flight time | N/A |
| Altitude | 35100 |
| Route | OLNER B213 WHA R343 SAGUD W50 XSH DCT DYTES DCT KAKBA DCT TOCEF DCT SHR DCT BZ A470 KAGED |
| Aircraft | A320/M-SDE3FGHIRWY/LB1 |
Departure
| Time | N/A |
|---|---|
| Airport | Chongqing Jiangbei International Airport (ZUCK) |
Arrival
| Time | 2026-05-05 03:26 |
|---|---|
| Airport | Wenzhou Longwan International Airport (ZSWZ) |
| Time | Latitude | Longitude | Altitude | Speed | Heading |
|---|---|---|---|---|---|
| 2026-05-05 03:00 | 27.98729 | 119.56060 | 35194 ft | 423 kts | 191° |
| 2026-05-05 03:01 | 27.95761 | 119.56175 | 34854 ft | 422 kts | 190° |
| 2026-05-05 03:01 | 27.92923 | 119.55804 | 33639 ft | 399 kts | 207° |
| 2026-05-05 03:01 | 27.90484 | 119.54510 | 32245 ft | 382 kts | 223° |
| 2026-05-05 03:01 | 27.88628 | 119.52435 | 30813 ft | 375 kts | 239° |
| 2026-05-05 03:02 | 27.87295 | 119.47182 | 27883 ft | 382 kts | 271° |
| 2026-05-05 03:02 | 27.87923 | 119.44271 | 26708 ft | 389 kts | 288° |
| 2026-05-05 03:02 | 27.89404 | 119.41707 | 25569 ft | 402 kts | 305° |
| 2026-05-05 03:03 | 27.91674 | 119.39708 | 24500 ft | 418 kts | 323° |
| 2026-05-05 03:03 | 27.94417 | 119.38592 | 23456 ft | 435 kts | 341° |
| 2026-05-05 03:03 | 27.97486 | 119.38452 | 22330 ft | 448 kts | 0° |
| 2026-05-05 03:03 | 28.00510 | 119.39359 | 21295 ft | 454 kts | 19° |
| 2026-05-05 03:04 | 28.03214 | 119.41206 | 20359 ft | 455 kts | 37° |
| 2026-05-05 03:04 | 28.05378 | 119.43771 | 19509 ft | 449 kts | 53° |
| 2026-05-05 03:04 | 28.06853 | 119.46831 | 18743 ft | 440 kts | 70° |
| 2026-05-05 03:04 | 28.07568 | 119.50142 | 17937 ft | 429 kts | 86° |
| 2026-05-05 03:05 | 28.07495 | 119.53489 | 17445 ft | 421 kts | 101° |
| 2026-05-05 03:05 | 28.06778 | 119.56665 | 16957 ft | 414 kts | 110° |
| 2026-05-05 03:05 | 28.06222 | 119.59848 | 16480 ft | 414 kts | 94° |
| 2026-05-05 03:05 | 28.06544 | 119.63042 | 16006 ft | 413 kts | 74° |
| 2026-05-05 03:06 | 28.07731 | 119.65972 | 15533 ft | 409 kts | 57° |
| 2026-05-05 03:06 | 28.09265 | 119.68669 | 15029 ft | 406 kts | 59° |
| 2026-05-05 03:06 | 28.10319 | 119.71603 | 14592 ft | 401 kts | 77° |
| 2026-05-05 03:06 | 28.10693 | 119.74711 | 14164 ft | 397 kts | 85° |
| 2026-05-05 03:07 | 28.10950 | 119.77813 | 13669 ft | 394 kts | 85° |
| 2026-05-05 03:07 | 28.11199 | 119.80878 | 13217 ft | 389 kts | 85° |
| 2026-05-05 03:07 | 28.11443 | 119.83909 | 12726 ft | 384 kts | 85° |
| 2026-05-05 03:07 | 28.11685 | 119.86909 | 12246 ft | 380 kts | 85° |
| 2026-05-05 03:08 | 28.11922 | 119.89861 | 11772 ft | 375 kts | 85° |
| 2026-05-05 03:08 | 28.12157 | 119.92786 | 11317 ft | 370 kts | 85° |
| 2026-05-05 03:08 | 28.12388 | 119.95675 | 10958 ft | 368 kts | 85° |
| 2026-05-05 03:08 | 28.12619 | 119.98551 | 10597 ft | 365 kts | 85° |
| 2026-05-05 03:09 | 28.12846 | 120.01395 | 10248 ft | 362 kts | 85° |
| 2026-05-05 03:09 | 28.13071 | 120.04221 | 9883 ft | 357 kts | 86° |
| 2026-05-05 03:09 | 28.13291 | 120.06998 | 9489 ft | 350 kts | 86° |
| 2026-05-05 03:09 | 28.13503 | 120.09673 | 9245 ft | 340 kts | 86° |
| 2026-05-05 03:10 | 28.13712 | 120.12285 | 9110 ft | 325 kts | 86° |
| 2026-05-05 03:10 | 28.13910 | 120.14779 | 8984 ft | 312 kts | 86° |
| 2026-05-05 03:10 | 28.14098 | 120.17186 | 8835 ft | 301 kts | 86° |
| 2026-05-05 03:10 | 28.14280 | 120.19508 | 8679 ft | 291 kts | 86° |
| 2026-05-05 03:11 | 28.14458 | 120.21760 | 8516 ft | 285 kts | 86° |
| 2026-05-05 03:11 | 28.14633 | 120.23989 | 8383 ft | 283 kts | 86° |
| 2026-05-05 03:11 | 28.14807 | 120.26215 | 8224 ft | 282 kts | 86° |
| 2026-05-05 03:11 | 28.14978 | 120.28428 | 8073 ft | 281 kts | 86° |
| 2026-05-05 03:12 | 28.15146 | 120.30629 | 7928 ft | 280 kts | 87° |
| 2026-05-05 03:12 | 28.15313 | 120.32821 | 7776 ft | 278 kts | 86° |
| 2026-05-05 03:12 | 28.15481 | 120.34999 | 7631 ft | 277 kts | 87° |
| 2026-05-05 03:12 | 28.15649 | 120.37170 | 7480 ft | 276 kts | 86° |
| 2026-05-05 03:13 | 28.15818 | 120.39339 | 7330 ft | 275 kts | 87° |
| 2026-05-05 03:13 | 28.15986 | 120.41494 | 7182 ft | 275 kts | 86° |
| 2026-05-05 03:13 | 28.16151 | 120.43647 | 7040 ft | 273 kts | 87° |
| 2026-05-05 03:13 | 28.16313 | 120.45790 | 6885 ft | 272 kts | 86° |
| 2026-05-05 03:14 | 28.16475 | 120.47927 | 6743 ft | 272 kts | 86° |
| 2026-05-05 03:14 | 28.16637 | 120.50058 | 6600 ft | 270 kts | 86° |
| 2026-05-05 03:14 | 28.16799 | 120.52172 | 6459 ft | 270 kts | 86° |
| 2026-05-05 03:14 | 28.16961 | 120.54288 | 6284 ft | 268 kts | 86° |
| 2026-05-05 03:15 | 28.17122 | 120.56396 | 6132 ft | 268 kts | 87° |
| 2026-05-05 03:15 | 28.17279 | 120.58482 | 5962 ft | 268 kts | 86° |
| 2026-05-05 03:15 | 28.17437 | 120.60580 | 5827 ft | 269 kts | 87° |
| 2026-05-05 03:15 | 28.17597 | 120.62702 | 5674 ft | 269 kts | 88° |
| 2026-05-05 03:16 | 28.17756 | 120.64793 | 5508 ft | 265 kts | 87° |
| 2026-05-05 03:16 | 28.17913 | 120.66870 | 5222 ft | 264 kts | 87° |
| 2026-05-05 03:16 | 28.18067 | 120.68945 | 4994 ft | 261 kts | 88° |
| 2026-05-05 03:16 | 28.18220 | 120.70989 | 4902 ft | 262 kts | 88° |
| 2026-05-05 03:17 | 28.18375 | 120.73064 | 4916 ft | 266 kts | 87° |
| 2026-05-05 03:17 | 28.18531 | 120.75159 | 4906 ft | 265 kts | 88° |
| 2026-05-05 03:17 | 28.18684 | 120.77233 | 4925 ft | 265 kts | 87° |
| 2026-05-05 03:17 | 28.18836 | 120.79311 | 4912 ft | 264 kts | 88° |
| 2026-05-05 03:18 | 28.18989 | 120.81378 | 4901 ft | 261 kts | 87° |
| 2026-05-05 03:18 | 28.19137 | 120.83354 | 4908 ft | 242 kts | 87° |
| 2026-05-05 03:18 | 28.19275 | 120.85216 | 4879 ft | 234 kts | 87° |
| 2026-05-05 03:18 | 28.19407 | 120.87020 | 4751 ft | 226 kts | 88° |
| 2026-05-05 03:19 | 28.19200 | 120.90487 | 4359 ft | 219 kts | 112° |
| 2026-05-05 03:19 | 28.18549 | 120.92003 | 4166 ft | 215 kts | 120° |
| 2026-05-05 03:19 | 28.17846 | 120.93465 | 4036 ft | 204 kts | 120° |
| 2026-05-05 03:20 | 28.17180 | 120.94860 | 3921 ft | 201 kts | 119° |
| 2026-05-05 03:20 | 28.16520 | 120.96222 | 3796 ft | 193 kts | 125° |
| 2026-05-05 03:20 | 28.15635 | 120.97325 | 3595 ft | 188 kts | 143° |
| 2026-05-05 03:20 | 28.14496 | 120.98018 | 3387 ft | 191 kts | 162° |
| 2026-05-05 03:21 | 28.13189 | 120.98238 | 3148 ft | 191 kts | 180° |
| 2026-05-05 03:21 | 28.11869 | 120.97926 | 2953 ft | 197 kts | 201° |
| 2026-05-05 03:21 | 28.10649 | 120.97204 | 2915 ft | 197 kts | 205° |
| 2026-05-05 03:21 | 28.09440 | 120.96474 | 2909 ft | 197 kts | 205° |
| 2026-05-05 03:22 | 28.08233 | 120.95749 | 2900 ft | 198 kts | 204° |
| 2026-05-05 03:22 | 28.07031 | 120.95017 | 2884 ft | 196 kts | 205° |
| 2026-05-05 03:22 | 28.05826 | 120.94285 | 2879 ft | 197 kts | 205° |
| 2026-05-05 03:22 | 28.04636 | 120.93563 | 2846 ft | 194 kts | 205° |
| 2026-05-05 03:23 | 28.03421 | 120.92828 | 2525 ft | 200 kts | 206° |
| 2026-05-05 03:23 | 28.02204 | 120.92090 | 2249 ft | 194 kts | 206° |
| 2026-05-05 03:23 | 28.01058 | 120.91395 | 2022 ft | 179 kts | 206° |
| 2026-05-05 03:23 | 28.00032 | 120.90772 | 1798 ft | 160 kts | 205° |
| 2026-05-05 03:24 | 27.99056 | 120.90182 | 1573 ft | 154 kts | 206° |
| 2026-05-05 03:24 | 27.98154 | 120.89636 | 1376 ft | 146 kts | 206° |
| 2026-05-05 03:24 | 27.97266 | 120.89099 | 1187 ft | 143 kts | 206° |
| 2026-05-05 03:24 | 27.96390 | 120.88570 | 1006 ft | 142 kts | 206° |
| 2026-05-05 03:25 | 27.95523 | 120.88046 | 817 ft | 143 kts | 207° |
| 2026-05-05 03:25 | 27.94642 | 120.87508 | 639 ft | 142 kts | 207° |
| 2026-05-05 03:25 | 27.93769 | 120.86980 | 435 ft | 142 kts | 207° |
| 2026-05-05 03:25 | 27.92899 | 120.86454 | 220 ft | 141 kts | 207° |
| 2026-05-05 03:26 | 27.92031 | 120.85933 | 45 ft | 141 kts | 207° |
| 2026-05-05 03:26 | 27.91262 | 120.85469 | 17 ft | 93 kts | 208° |
| 2026-05-05 03:26 | 27.90895 | 120.85249 | 14 ft | 46 kts | 207° |
| 2026-05-05 03:26 | 27.90714 | 120.85123 | 17 ft | 28 kts | 223° |
| 2026-05-05 03:27 | 27.90624 | 120.84998 | 17 ft | 11 kts | 236° |
| 2026-05-05 03:27 | 27.90583 | 120.84928 | 19 ft | 10 kts | 240° |
| 2026-05-05 03:27 | 27.90588 | 120.84863 | 18 ft | 8 kts | 302° |
| 2026-05-05 03:27 | 27.90614 | 120.84809 | 18 ft | 9 kts | 294° |
| 2026-05-05 03:28 | 27.90544 | 120.84730 | 17 ft | 18 kts | 207° |
| 2026-05-05 03:28 | 27.90428 | 120.84660 | 16 ft | 20 kts | 209° |
| 2026-05-05 03:28 | 27.90353 | 120.84589 | 18 ft | 9 kts | 269° |
| 2026-05-05 03:28 | 27.90375 | 120.84528 | 16 ft | 8 kts | 297° |
| 2026-05-05 03:29 | 27.90399 | 120.84478 | 18 ft | 7 kts | 298° |
| 2026-05-05 03:29 | 27.90420 | 120.84434 | 17 ft | 8 kts | 298° |
| 2026-05-05 03:29 | 27.90454 | 120.84367 | 16 ft | 7 kts | 306° |
| 2026-05-05 03:29 | 27.90493 | 120.84365 | 17 ft | 5 kts | 21° |
| 2026-05-05 03:30 | 27.90525 | 120.84385 | 17 ft | 5 kts | 28° |
| 2026-05-05 03:30 | 27.90538 | 120.84393 | 17 ft | 0 kts | 28° |